createdAt,value
2023-10-12T00:01:28.266Z,10.82
2023-10-12T00:04:00.361Z,9.23
2023-10-12T00:06:31.571Z,12.07
2023-10-12T00:09:04.797Z,11.10
2023-10-12T00:11:40.241Z,14.18
2023-10-12T00:14:07.966Z,10.35
2023-10-12T00:16:37.840Z,10.05
2023-10-12T00:19:12.582Z,10.18
2023-10-12T00:21:44.266Z,7.57
2023-10-12T00:24:14.151Z,14.25
2023-10-12T00:26:43.971Z,11.68
2023-10-12T00:29:13.898Z,7.43
2023-10-12T00:31:44.349Z,9.95
2023-10-12T00:34:12.806Z,10.73
2023-10-12T00:36:41.884Z,10.20
2023-10-12T00:39:12.087Z,9.00
2023-10-12T00:41:45.563Z,9.65
2023-10-12T00:44:14.062Z,8.48
2023-10-12T00:46:59.536Z,9.32
2023-10-12T00:49:31.264Z,7.65
2023-10-12T00:52:09.866Z,10.20
2023-10-12T00:54:50.746Z,12.00
2023-10-12T00:57:18.802Z,12.68
2023-10-12T00:59:48.224Z,12.45
2023-10-12T01:02:19.020Z,12.93
2023-10-12T01:04:49.722Z,7.50
2023-10-12T01:07:21.939Z,7.30
2023-10-12T01:09:50.329Z,8.27
2023-10-12T01:12:19.414Z,10.55
2023-10-12T01:14:48.924Z,11.40
2023-10-12T01:17:18.968Z,7.15
2023-10-12T01:19:49.755Z,9.63
2023-10-12T01:22:27.150Z,13.02
2023-10-12T01:25:11.823Z,13.40
2023-10-12T01:27:43.614Z,7.70
2023-10-12T01:30:18.790Z,7.75
2023-10-12T01:32:52.743Z,8.38
2023-10-12T01:35:27.719Z,9.48
2023-10-12T01:38:01.683Z,10.32
2023-10-12T01:40:42.431Z,8.88
2023-10-12T01:43:13.598Z,10.73
2023-10-12T01:45:44.929Z,8.65
2023-10-12T01:48:17.155Z,10.57
2023-10-12T01:50:45.213Z,8.43
2023-10-12T01:53:27.201Z,14.57
2023-10-12T01:55:56.045Z,11.95
2023-10-12T01:58:28.616Z,10.13
2023-10-12T02:00:56.916Z,8.95
2023-10-12T02:03:33.007Z,8.25
2023-10-12T02:06:01.463Z,9.98
2023-10-12T02:08:36.425Z,8.55
2023-10-12T02:11:11.819Z,8.43
2023-10-12T02:13:41.948Z,16.05
2023-10-12T02:16:13.680Z,9.70
2023-10-12T02:18:42.015Z,8.55
2023-10-12T02:21:12.008Z,8.82
2023-10-12T02:23:55.537Z,8.77
2023-10-12T02:26:37.487Z,11.38
2023-10-12T02:29:19.148Z,10.50
2023-10-12T02:31:57.069Z,10.82
2023-10-12T02:34:28.002Z,11.32
2023-10-12T02:37:19.781Z,11.50
2023-10-12T02:39:49.926Z,11.05
2023-10-12T02:42:24.079Z,12.63
2023-10-12T02:45:09.804Z,10.77
2023-10-12T02:47:41.765Z,11.30
2023-10-12T02:50:21.886Z,13.75
2023-10-12T02:52:53.271Z,10.18
2023-10-12T02:55:35.932Z,8.32
2023-10-12T02:58:08.823Z,13.07
2023-10-12T03:00:38.856Z,7.25
2023-10-12T03:03:20.849Z,7.93
2023-10-12T03:05:49.040Z,9.98
2023-10-12T03:08:18.856Z,12.32
2023-10-12T03:11:12.515Z,11.38
2023-10-12T03:13:43.517Z,11.45
2023-10-12T03:16:21.852Z,10.95
2023-10-12T03:18:58.301Z,9.98
2023-10-12T03:21:28.680Z,8.70
2023-10-12T03:23:58.992Z,10.88
2023-10-12T03:26:28.325Z,10.00
2023-10-12T03:29:06.389Z,12.57
2023-10-12T03:31:37.065Z,13.70
2023-10-12T03:34:17.838Z,8.93
2023-10-12T03:36:49.495Z,9.32
2023-10-12T03:39:29.562Z,11.80
2023-10-12T03:42:10.216Z,8.93
2023-10-12T03:44:50.068Z,12.75
2023-10-12T03:47:25.552Z,9.93
2023-10-12T03:50:00.288Z,11.25
2023-10-12T03:52:35.669Z,8.77
2023-10-12T03:55:25.914Z,12.52
2023-10-12T03:58:07.066Z,10.45
2023-10-12T04:00:49.546Z,10.90
2023-10-12T04:03:20.188Z,10.05
2023-10-12T04:05:56.501Z,8.50
2023-10-12T04:08:45.288Z,8.95
2023-10-12T04:11:30.856Z,12.18
2023-10-12T04:14:20.696Z,9.68
2023-10-12T04:16:57.907Z,9.77
2023-10-12T04:19:33.305Z,11.05
2023-10-12T04:22:17.729Z,11.60
2023-10-12T04:24:47.461Z,9.77
2023-10-12T04:27:40.015Z,12.65
2023-10-12T04:30:21.819Z,12.57
2023-10-12T04:33:12.813Z,12.65
2023-10-12T04:35:58.651Z,17.45
2023-10-12T04:38:31.247Z,12.10
2023-10-12T04:41:13.000Z,11.45
2023-10-12T04:43:41.211Z,12.30
2023-10-12T04:46:24.500Z,12.63
2023-10-12T04:49:01.438Z,12.27
2023-10-12T04:51:31.942Z,13.50
2023-10-12T04:54:07.260Z,15.65
2023-10-12T04:56:38.035Z,11.13
2023-10-12T04:59:16.208Z,11.70
2023-10-12T05:02:07.460Z,11.65
2023-10-12T05:04:40.266Z,15.13
2023-10-12T05:07:28.747Z,12.30
2023-10-12T05:09:56.596Z,11.90
2023-10-12T05:12:25.506Z,10.82
2023-10-12T05:14:56.421Z,13.48
2023-10-12T05:17:26.293Z,13.88
2023-10-12T05:19:54.178Z,13.50
2023-10-12T05:22:22.569Z,15.88
2023-10-12T05:24:50.669Z,14.45
2023-10-12T05:27:24.539Z,10.18
2023-10-12T05:29:55.972Z,13.52
2023-10-12T05:32:38.226Z,15.65
2023-10-12T05:35:07.052Z,12.30
2023-10-12T05:37:39.926Z,15.23
2023-10-12T05:40:15.238Z,14.65
2023-10-12T05:42:48.168Z,14.52
2023-10-12T05:45:22.788Z,16.48
2023-10-12T05:47:53.882Z,15.80
2023-10-12T05:50:24.887Z,14.73
2023-10-12T05:52:54.315Z,20.05
2023-10-12T05:55:25.212Z,15.13
2023-10-12T05:57:56.247Z,15.63
2023-10-12T06:00:37.268Z,15.13
2023-10-12T06:03:08.119Z,12.65
2023-10-12T06:05:36.560Z,14.20
2023-10-12T06:08:05.760Z,14.48
2023-10-12T06:10:34.983Z,15.25
2023-10-12T06:13:04.746Z,14.82
2023-10-12T06:15:40.802Z,13.75
2023-10-12T06:18:11.749Z,14.50
2023-10-12T06:20:43.204Z,11.73
2023-10-12T06:23:14.712Z,11.35
2023-10-12T06:25:56.995Z,12.25
2023-10-12T06:28:32.255Z,13.48
2023-10-12T06:31:02.265Z,14.23
2023-10-12T06:33:32.738Z,12.82
2023-10-12T06:36:04.922Z,13.02
2023-10-12T06:38:41.012Z,15.50
2023-10-12T06:41:28.589Z,10.88
2023-10-12T06:44:14.597Z,13.23
2023-10-12T06:46:47.342Z,12.15
2023-10-12T06:49:19.698Z,13.48
2023-10-12T06:51:54.901Z,14.65
2023-10-12T06:54:33.852Z,11.40
2023-10-12T06:57:16.496Z,12.13
2023-10-12T06:59:54.047Z,13.18
2023-10-12T07:02:25.318Z,12.45
2023-10-12T07:04:55.336Z,14.88
2023-10-12T07:07:28.256Z,11.18
2023-10-12T07:10:13.407Z,13.50
2023-10-12T07:12:45.568Z,13.68
2023-10-12T07:15:13.881Z,12.20
2023-10-12T07:17:50.163Z,11.50
2023-10-12T07:20:41.550Z,16.63
2023-10-12T07:23:16.114Z,12.57
2023-10-12T07:25:45.955Z,13.18
2023-10-12T07:28:19.809Z,13.23
2023-10-12T07:31:01.955Z,15.10
2023-10-12T07:33:31.356Z,13.57
2023-10-12T07:36:11.144Z,14.15
2023-10-12T07:38:39.068Z,14.85
2023-10-12T07:41:06.976Z,11.30
2023-10-12T07:43:39.643Z,13.77
2023-10-12T07:46:14.462Z,12.55
2023-10-12T07:48:43.640Z,13.27
2023-10-12T07:51:26.111Z,11.55
2023-10-12T07:54:00.741Z,12.35
2023-10-12T07:56:34.969Z,13.20
2023-10-12T07:59:03.146Z,11.07
2023-10-12T08:01:40.432Z,11.85
2023-10-12T08:04:29.475Z,14.70
2023-10-12T08:06:57.815Z,11.68
2023-10-12T08:09:48.490Z,12.30
2023-10-12T08:12:26.194Z,9.23
2023-10-12T08:14:56.213Z,12.35
2023-10-12T08:17:31.559Z,9.43
2023-10-12T08:20:18.401Z,13.30
2023-10-12T08:22:51.929Z,10.63
2023-10-12T08:25:29.077Z,9.65
2023-10-12T08:28:07.391Z,11.57
2023-10-12T08:30:49.708Z,11.55
2023-10-12T08:33:18.912Z,9.80
2023-10-12T08:36:00.659Z,10.00
2023-10-12T08:38:34.592Z,7.85
2023-10-12T08:41:19.892Z,10.02
2023-10-12T08:43:50.117Z,9.02
2023-10-12T08:46:32.619Z,11.02
2023-10-12T08:49:07.532Z,7.53
2023-10-12T08:51:36.863Z,9.60
2023-10-12T08:54:08.784Z,11.85
2023-10-12T08:56:46.519Z,11.73
2023-10-12T08:59:15.831Z,10.73
2023-10-12T09:01:43.920Z,10.20
2023-10-12T09:04:17.568Z,5.25
2023-10-12T09:06:57.863Z,3.42
2023-10-12T09:09:44.591Z,3.85
2023-10-12T09:12:17.698Z,5.20
2023-10-12T09:14:44.980Z,7.88
2023-10-12T09:17:28.864Z,12.88
2023-10-12T09:20:10.909Z,5.72
2023-10-12T09:22:40.611Z,6.80
2023-10-12T09:25:27.904Z,6.95
2023-10-12T09:27:57.287Z,5.85
2023-10-12T09:30:27.630Z,6.45
2023-10-12T09:33:07.255Z,8.52
2023-10-12T09:35:42.769Z,7.03
2023-10-12T09:38:14.090Z,4.03
2023-10-12T09:40:53.546Z,10.30
2023-10-12T09:43:26.337Z,11.30
2023-10-12T09:46:02.287Z,4.50
2023-10-12T09:48:39.296Z,5.25
2023-10-12T09:51:16.584Z,6.90
2023-10-12T09:53:54.947Z,6.22
2023-10-12T09:56:29.450Z,4.22
2023-10-12T09:59:07.065Z,4.75
2023-10-12T10:01:50.586Z,5.13
2023-10-12T10:04:32.869Z,5.30
2023-10-12T10:07:17.397Z,5.43
2023-10-12T10:09:48.542Z,9.15
2023-10-12T10:12:18.873Z,7.80
2023-10-12T10:14:52.901Z,6.18
2023-10-12T10:17:25.373Z,5.20
2023-10-12T10:20:20.352Z,5.88
2023-10-12T10:22:57.551Z,6.85
2023-10-12T10:25:35.103Z,3.38
2023-10-12T10:28:10.668Z,7.00
2023-10-12T10:30:42.714Z,8.30
2023-10-12T10:33:14.654Z,10.43
2023-10-12T10:35:59.459Z,4.75
2023-10-12T10:38:33.323Z,7.22
2023-10-12T10:41:08.912Z,6.60
2023-10-12T10:43:39.759Z,6.25
2023-10-12T10:46:12.294Z,9.13
2023-10-12T10:51:13.237Z,10.00
2023-10-12T10:53:41.048Z,5.68
2023-10-12T10:56:17.826Z,6.55
2023-10-12T10:58:47.599Z,10.07
2023-10-12T11:01:16.715Z,7.32
2023-10-12T11:03:47.588Z,7.53
2023-10-12T11:06:22.737Z,7.57
2023-10-12T11:09:02.699Z,6.18
2023-10-12T11:11:38.341Z,7.32
2023-10-12T11:14:10.036Z,5.72
2023-10-12T11:16:38.510Z,6.57
2023-10-12T11:19:10.153Z,6.93
2023-10-12T11:21:38.366Z,6.32
2023-10-12T11:24:10.510Z,8.27
2023-10-12T11:26:52.240Z,8.75
2023-10-12T11:29:21.524Z,8.10
2023-10-12T11:32:09.366Z,9.50
2023-10-12T11:34:37.569Z,10.07
2023-10-12T11:37:05.542Z,8.50
2023-10-12T11:39:42.757Z,9.75
2023-10-12T11:42:13.685Z,5.80
2023-10-12T11:44:47.340Z,8.85
2023-10-12T11:47:38.847Z,10.27
2023-10-12T11:50:10.963Z,6.88
2023-10-12T11:52:41.640Z,7.57
2023-10-12T11:55:19.630Z,5.60
2023-10-12T11:57:50.027Z,7.78
2023-10-12T12:00:25.350Z,8.70
2023-10-12T12:02:58.532Z,9.05
2023-10-12T12:05:27.930Z,7.68
2023-10-12T12:07:57.876Z,7.50
2023-10-12T12:10:30.766Z,6.55
2023-10-12T12:12:59.309Z,12.05
2023-10-12T12:15:28.497Z,5.03
2023-10-12T12:17:56.335Z,6.00
2023-10-12T12:20:24.242Z,6.53
2023-10-12T12:22:55.206Z,8.25
2023-10-12T12:25:33.019Z,6.43
2023-10-12T12:28:03.260Z,10.10
2023-10-12T12:33:10.104Z,7.95
2023-10-12T12:35:39.347Z,7.18
2023-10-12T12:38:18.905Z,6.85
2023-10-12T12:40:47.074Z,6.90
2023-10-12T12:43:15.107Z,7.13
2023-10-12T12:45:44.317Z,8.02
2023-10-12T12:48:12.363Z,6.90
2023-10-12T12:50:40.115Z,8.07
2023-10-12T12:53:08.853Z,8.63
2023-10-12T12:55:39.903Z,5.85
2023-10-12T12:58:10.834Z,6.70
2023-10-12T13:00:38.685Z,10.73
2023-10-12T13:03:10.378Z,6.90
2023-10-12T13:05:38.546Z,5.60
2023-10-12T13:08:09.165Z,7.43
2023-10-12T13:10:37.510Z,6.88
2023-10-12T13:13:05.953Z,9.32
2023-10-12T13:15:33.889Z,9.02
2023-10-12T13:18:01.854Z,9.93
2023-10-12T13:20:31.271Z,8.82
2023-10-12T13:22:59.264Z,8.32
2023-10-12T13:25:28.599Z,5.60
2023-10-12T13:27:57.382Z,6.18
2023-10-12T13:30:25.832Z,9.90
2023-10-12T13:33:01.076Z,5.90
2023-10-12T13:35:32.800Z,7.00
2023-10-12T13:38:06.597Z,9.13
2023-10-12T13:40:37.676Z,11.10
2023-10-12T13:43:16.242Z,10.50
2023-10-12T13:45:48.589Z,9.05
2023-10-12T13:48:20.205Z,10.80
2023-10-12T13:50:53.013Z,9.85
2023-10-12T13:53:24.463Z,7.20
2023-10-12T13:55:54.987Z,5.70
2023-10-12T13:58:26.050Z,6.78
2023-10-12T14:00:55.194Z,7.38
2023-10-12T14:03:29.594Z,10.48
2023-10-12T14:05:58.416Z,9.05
2023-10-12T14:08:29.713Z,9.68
2023-10-12T14:11:04.325Z,8.88
2023-10-12T14:13:32.819Z,7.40
2023-10-12T14:16:01.329Z,7.13
2023-10-12T14:18:29.828Z,7.97
2023-10-12T14:20:57.958Z,5.55
2023-10-12T14:23:27.965Z,7.25
2023-10-12T14:25:58.629Z,7.32
2023-10-12T14:28:32.843Z,7.13
2023-10-12T14:31:01.539Z,7.65
2023-10-12T14:33:31.687Z,10.07
2023-10-12T14:35:59.780Z,8.25
2023-10-12T14:38:33.485Z,9.95
2023-10-12T14:41:06.884Z,9.55
2023-10-12T14:43:36.516Z,9.05
2023-10-12T14:46:06.250Z,5.75
2023-10-12T14:48:34.570Z,11.40
2023-10-12T14:51:08.942Z,5.95
2023-10-12T14:53:38.492Z,6.15
2023-10-12T14:56:06.684Z,8.80
2023-10-12T14:58:35.679Z,9.27
2023-10-12T15:01:10.601Z,6.63
2023-10-12T15:03:40.134Z,8.65
2023-10-12T15:06:08.244Z,10.55
2023-10-12T15:08:37.454Z,8.88
2023-10-12T15:11:07.611Z,7.50
2023-10-12T15:13:39.132Z,9.80
2023-10-12T15:16:11.491Z,6.57
2023-10-12T15:18:42.492Z,9.60
2023-10-12T15:21:25.450Z,8.48
2023-10-12T15:23:58.977Z,7.13
2023-10-12T15:26:29.333Z,6.00
2023-10-12T15:28:57.960Z,9.07
2023-10-12T15:31:28.777Z,5.78
2023-10-12T15:33:57.571Z,4.60
2023-10-12T15:36:26.684Z,6.47
2023-10-12T15:38:55.090Z,8.98
2023-10-12T15:41:23.416Z,7.90
2023-10-12T15:43:54.038Z,6.63
2023-10-12T15:46:22.728Z,9.57
2023-10-12T15:48:51.005Z,6.43
2023-10-12T15:51:21.387Z,8.68
2023-10-12T15:53:50.320Z,6.68
2023-10-12T15:56:19.402Z,7.35
2023-10-12T15:58:50.135Z,11.48
2023-10-12T16:01:19.747Z,7.03
2023-10-12T16:03:47.805Z,8.35
2023-10-12T16:06:15.866Z,6.72
2023-10-12T16:08:45.494Z,6.88
2023-10-12T16:11:17.713Z,6.97
2023-10-12T16:13:46.846Z,8.15
2023-10-12T16:16:15.844Z,9.80
2023-10-12T16:18:45.469Z,9.38
2023-10-12T16:21:17.259Z,10.20
2023-10-12T16:23:45.852Z,9.35
2023-10-12T16:26:14.310Z,8.88
2023-10-12T16:28:42.987Z,7.13
2023-10-12T16:31:11.135Z,6.85
2023-10-12T16:33:40.018Z,8.73
2023-10-12T16:36:12.565Z,6.85
2023-10-12T16:38:41.574Z,6.47
2023-10-12T16:41:10.009Z,7.10
2023-10-12T16:43:39.238Z,10.38
2023-10-12T16:46:08.467Z,9.05
2023-10-12T16:48:39.285Z,7.88
2023-10-12T16:51:08.868Z,7.88
2023-10-12T16:53:37.534Z,11.68
2023-10-12T16:56:11.359Z,8.85
2023-10-12T16:58:41.243Z,10.52
2023-10-12T17:01:11.310Z,7.30
2023-10-12T17:03:40.289Z,9.93
2023-10-12T17:06:09.542Z,6.80
2023-10-12T17:08:38.611Z,10.38
2023-10-12T17:11:06.946Z,5.47
2023-10-12T17:13:34.829Z,7.63
2023-10-12T17:16:02.762Z,9.32
2023-10-12T17:18:35.040Z,9.80
2023-10-12T17:21:03.449Z,7.53
2023-10-12T17:23:32.708Z,7.93
2023-10-12T17:26:00.811Z,5.72
2023-10-12T17:28:31.757Z,6.60
2023-10-12T17:31:06.664Z,7.35
2023-10-12T17:33:35.543Z,8.40
2023-10-12T17:36:04.903Z,6.13
2023-10-12T17:38:34.090Z,11.60
2023-10-12T17:41:02.078Z,9.18
2023-10-12T17:43:31.376Z,7.75
2023-10-12T17:45:59.351Z,6.75
2023-10-12T17:48:27.163Z,9.63
2023-10-12T17:50:55.206Z,8.90
2023-10-12T17:53:23.037Z,9.02
2023-10-12T17:55:52.328Z,6.68
2023-10-12T17:58:20.170Z,8.05
2023-10-12T18:00:48.024Z,7.57
2023-10-12T18:03:16.827Z,5.90
2023-10-12T18:05:45.012Z,7.25
2023-10-12T18:08:12.859Z,5.05
2023-10-12T18:10:44.274Z,5.93
2023-10-12T18:13:13.825Z,9.07
2023-10-12T18:15:42.508Z,8.63
2023-10-12T18:18:10.645Z,9.20
2023-10-12T18:20:38.601Z,5.22
2023-10-12T18:23:07.132Z,5.82
2023-10-12T18:25:35.461Z,4.00
2023-10-12T18:28:04.581Z,8.05
2023-10-12T18:30:34.609Z,8.95
2023-10-12T18:33:02.472Z,7.97
2023-10-12T18:35:31.083Z,6.25
2023-10-12T18:37:59.090Z,9.02
2023-10-12T18:40:29.816Z,6.47
2023-10-12T18:42:57.713Z,5.75
2023-10-12T18:45:26.143Z,6.65
2023-10-12T18:47:56.492Z,6.70
2023-10-12T18:50:25.591Z,8.82
2023-10-12T18:52:55.620Z,9.57
2023-10-12T18:55:23.438Z,8.43
2023-10-12T18:57:51.243Z,10.50
2023-10-12T19:00:21.293Z,8.23
2023-10-12T19:02:51.258Z,6.20
2023-10-12T19:05:20.704Z,8.68
2023-10-12T19:07:48.874Z,8.30
2023-10-12T19:10:16.934Z,7.95
2023-10-12T19:12:44.703Z,6.88
2023-10-12T19:15:16.786Z,7.95
2023-10-12T19:17:45.163Z,7.32
2023-10-12T19:20:13.397Z,5.13
2023-10-12T19:22:44.372Z,6.25
2023-10-12T19:25:13.607Z,6.40
2023-10-12T19:27:47.727Z,5.47
2023-10-12T19:30:16.380Z,8.95
2023-10-12T19:32:46.630Z,7.20
2023-10-12T19:35:14.558Z,10.43
2023-10-12T19:37:44.052Z,8.70
2023-10-12T19:40:17.351Z,7.47
2023-10-12T19:42:45.417Z,4.55
2023-10-12T19:45:13.527Z,5.05
2023-10-12T19:47:41.764Z,6.32
2023-10-12T19:50:10.686Z,11.38
2023-10-12T19:52:40.807Z,6.47
2023-10-12T19:55:12.081Z,9.80
2023-10-12T19:57:42.614Z,8.82
2023-10-12T20:00:25.285Z,6.28
2023-10-12T20:02:55.392Z,5.57
2023-10-12T20:05:25.361Z,6.00
2023-10-12T20:07:53.170Z,5.20
2023-10-12T20:10:22.826Z,5.15
2023-10-12T20:12:50.582Z,6.25
2023-10-12T20:15:18.315Z,5.43
2023-10-12T20:17:47.714Z,5.25
2023-10-12T20:20:19.747Z,5.82
2023-10-12T20:22:48.504Z,4.55
2023-10-12T20:25:16.551Z,3.50
2023-10-12T20:27:46.081Z,6.78
2023-10-12T20:30:14.395Z,3.50
2023-10-12T20:32:42.809Z,5.72
2023-10-12T20:35:12.672Z,4.22
2023-10-12T20:37:40.844Z,4.30
2023-10-12T20:40:11.393Z,5.10
2023-10-12T20:42:40.517Z,4.93
2023-10-12T20:45:13.154Z,5.43
2023-10-12T20:47:44.051Z,3.53
2023-10-12T20:50:16.276Z,4.65
2023-10-12T20:52:44.199Z,4.97
2023-10-12T20:55:13.133Z,4.22
2023-10-12T20:57:45.146Z,3.33
2023-10-12T21:00:17.926Z,4.68
2023-10-12T21:02:48.483Z,1.95
2023-10-12T21:05:24.314Z,5.05
2023-10-12T21:07:54.438Z,2.30
2023-10-12T21:10:24.459Z,4.75
2023-10-12T21:12:52.355Z,7.85
2023-10-12T21:15:21.657Z,4.93
2023-10-12T21:17:57.557Z,3.28
2023-10-12T21:20:39.930Z,3.22
2023-10-12T21:23:08.515Z,5.10
2023-10-12T21:25:36.381Z,3.30
2023-10-12T21:28:04.404Z,3.72
2023-10-12T21:30:37.694Z,3.17
2023-10-12T21:33:12.425Z,2.70
2023-10-12T21:35:43.860Z,3.58
2023-10-12T21:38:12.641Z,4.30
2023-10-12T21:40:44.669Z,4.03
2023-10-12T21:43:13.390Z,2.92
2023-10-12T21:45:50.187Z,4.13
2023-10-12T21:48:19.533Z,3.05
2023-10-12T21:50:47.632Z,2.67
2023-10-12T21:53:16.660Z,5.72
2023-10-12T21:55:45.094Z,5.15
2023-10-12T21:58:13.211Z,3.63
2023-10-12T22:00:58.217Z,6.70
2023-10-12T22:03:30.655Z,5.00
2023-10-12T22:05:59.255Z,5.63
2023-10-12T22:08:27.106Z,5.32
2023-10-12T22:10:57.226Z,4.53
2023-10-12T22:13:38.272Z,3.38
2023-10-12T22:16:06.708Z,3.85
2023-10-12T22:18:35.875Z,4.47
2023-10-12T22:21:04.810Z,3.08
2023-10-12T22:23:32.670Z,3.63
2023-10-12T22:26:02.645Z,3.30
2023-10-12T22:28:36.698Z,3.05
2023-10-12T22:31:05.076Z,4.03
2023-10-12T22:33:34.063Z,4.05
2023-10-12T22:36:04.337Z,5.40
2023-10-12T22:38:32.303Z,5.43
2023-10-12T22:41:01.318Z,3.92
2023-10-12T22:43:29.622Z,7.50
2023-10-12T22:45:57.494Z,4.05
2023-10-12T22:48:26.016Z,6.40
2023-10-12T22:50:53.878Z,4.72
2023-10-12T22:53:23.070Z,6.55
2023-10-12T22:55:50.805Z,4.28
2023-10-12T22:58:18.633Z,6.50
2023-10-12T23:00:46.443Z,6.53
2023-10-12T23:03:15.563Z,4.93
2023-10-12T23:05:45.830Z,4.60
2023-10-12T23:08:14.852Z,6.00
2023-10-12T23:10:47.652Z,4.50
2023-10-12T23:13:15.545Z,5.65
2023-10-12T23:15:45.766Z,4.65
2023-10-12T23:18:20.380Z,6.00
2023-10-12T23:20:48.507Z,5.55
2023-10-12T23:23:18.358Z,5.50
2023-10-12T23:25:48.876Z,6.75
2023-10-12T23:28:18.549Z,7.68
2023-10-12T23:30:47.307Z,5.07
2023-10-12T23:33:17.063Z,7.57
2023-10-12T23:35:52.348Z,5.38
2023-10-12T23:38:35.232Z,6.07
2023-10-12T23:41:19.633Z,6.13
2023-10-12T23:43:55.054Z,7.07
2023-10-12T23:46:26.019Z,5.15
2023-10-12T23:49:21.607Z,10.20
2023-10-12T23:51:48.875Z,6.18
2023-10-12T23:54:27.241Z,5.03
2023-10-12T23:57:02.844Z,6.53
2023-10-12T23:59:30.856Z,7.72
